Hazard Outlook ... Broad high pressure will persist over the southeast through the rest of the week, limiting daily shower and thunderstorm activity and keeping temperatures well above normal. The ridge of high pressure will strengthen over the weekend, resulting in near-record high temperatures each day.

Nearby METAR Reports

 

KGSP - Greer/Spartansbg, South Carolina, USA
Distance from station: E 4mi, 6km
Updated: Thu, 23-May-2019 1:53am EDT
Overcast
Overcast
 Wind from NNE
Wind: NNE 3 mph , 6 km/h
Temperature: 72°F , 22°C
Dew Point: 64°F , 18°C
Humidity: 78%
Barometer: 30.24 inHg , 1024 hPa
Clouds: Overcast
Visibility: 9 miles , 14 km
Cloud details: Mostly cloudy 1700 ft
Mostly cloudy 2400 ft
Overcast 2900 ft
2019/05/23 05:53 KGSP 230553Z AUTO 02003KT 9SM BKN017 BKN024 OVC029 22/18 A3024 RMK AO2 SLP231 T02170183 10244 20217 51001
KGMU - Greenville, South Carolina, USA
Distance from station: SW 5mi, 8km
Updated: Thu, 23-May-2019 1:53am EDT
Overcast
Overcast
 Wind from varies
Wind: varies 6 mph , 9 km/h
Temperature: 73°F , 23°C
Dew Point: 68°F , 20°C
Humidity: 83%
Barometer: 30.24 inHg , 1024 hPa
Clouds: Overcast
Visibility: 10 miles , 16 km
Cloud details: Mostly cloudy 1700 ft
Mostly cloudy 2400 ft
Overcast 2900 ft
2019/05/23 05:53 KGMU 230553Z AUTO VRB05KT 10SM BKN017 BKN024 OVC029 23/20 A3024 RMK AO2 SLP232 T02330200 10256 20233 51001
 
KGYH - Greenville, South Carolina, USA
Distance from station: SSW 11mi, 18km
Updated: Thu, 23-May-2019 2:55am EDT
Mostly cloudy
Mostly cloudy
 Wind from E
Wind: E 3 mph , 6 km/h
Temperature: 73°F , 23°C
Dew Point: 70°F , 21°C
Humidity: 89%
Barometer: 30.23 inHg , 1023.7 hPa
Clouds: Mostly cloudy
Visibility: 10 miles , 16 km
Cloud details: Partly cloudy 1200 ft
Mostly cloudy 5000 ft
2019/05/23 06:55 KGYH 230655Z AUTO 10003KT 10SM SCT012 BKN050 23/21 A3023 RMK AO2
KSPA - Spartanburg, South Carolina, USA
Distance from station: E 20mi, 32km
Updated: Thu, 23-May-2019 2:55am EDT
Mist, Overcast
Mist, Overcast
 Wind from calm
Wind: Calm
Temperature: 68°F , 20°C
Dew Point: 68°F , 20°C
Humidity: 100%
Barometer: 30.22 inHg , 1023.4 hPa
Summary: Mist
Clouds: Overcast
Visibility: 5 miles , 8 km
Cloud details: Partly cloudy 300 ft
Overcast 1400 ft
2019/05/23 06:55 KSPA 230655Z AUTO 00000KT 5SM BR SCT003 OVC014 20/20 A3022 RMK AO2
 
KLQK - Pickens, South Carolina, USA
Distance from station: WSW 24mi, 39km
Updated: Thu, 23-May-2019 2:35am EDT
Overcast
Overcast
 Wind from ESE
Wind: ESE 3 mph , 6 km/h
Temperature: 72°F , 22°C
Dew Point: 72°F , 22°C
Humidity: 100%
Barometer: 30.22 inHg , 1023.4 hPa
Clouds: Overcast
Visibility: 10 miles , 16 km
Cloud details: Mostly cloudy 1800 ft
Overcast 5000 ft
2019/05/23 06:35 KLQK 230635Z AUTO 12003KT 10SM BKN018 OVC050 22/22 A3022 RMK AO2 T02220216
KLUX - Laurens, South Carolina, USA
Distance from station: SE 33mi, 54km
Updated: Thu, 23-May-2019 2:35am EDT
Partly cloudy
Partly cloudy
 Wind from calm
Wind: Calm
Temperature: 72°F , 22°C
Dew Point: 72°F , 22°C
Humidity: 100%
Barometer: 30.22 inHg , 1023.4 hPa
Clouds: Partly cloudy
Visibility: 10 miles , 16 km
Cloud details: Partly cloudy 6500 ft
2019/05/23 06:35 KLUX 230635Z AUTO 00000KT 10SM SCT065 22/22 A3022 RMK AO2
 
KAND - Anderson, South Carolina, USA
Distance from station: SW 37mi, 59km
Updated: Thu, 23-May-2019 1:56am EDT
Mostly cloudy
Mostly cloudy
 Wind from E
Wind: E 3 mph , 6 km/h
Temperature: 72°F , 22°C
Dew Point: 68°F , 20°C
Humidity: 88%
Barometer: 30.22 inHg , 1023.4 hPa
Clouds: Mostly cloudy
Visibility: 10 miles , 16 km
Cloud details: Mostly cloudy 7000 ft
Mostly cloudy 8000 ft
2019/05/23 05:56 KAND 230556Z AUTO 09003KT 10SM BKN070 BKN080 22/20 A3022 RMK AO2 SLP222 60000 T02220200 10244 20217 53002
KCEU - Clemson, South Carolina, USA
Distance from station: WSW 37mi, 60km
Updated: Thu, 23-May-2019 1:54am EDT
Mostly cloudy
Mostly cloudy
 Wind from ESE
Wind: ESE 5 mph , 7 km/h
Temperature: 72°F , 22°C
Dew Point: 66°F , 19°C
Humidity: 83%
Barometer: 30.23 inHg , 1023.7 hPa
Clouds: Mostly cloudy
Visibility: 9 miles , 14 km
Cloud details: Partly cloudy 2300 ft
Mostly cloudy 4700 ft
2019/05/23 05:54 KCEU 230554Z AUTO 11004KT 9SM SCT023 BKN047 22/19 A3023 RMK AO2 SLP226 T02220194 10250 20222 51000
 
KAVL - Asheville, North Carolina, USA
Distance from station: NNW 40mi, 64km
Updated: Thu, 23-May-2019 2:22am EDT
Overcast
Overcast
 Wind from SSE
Wind: SSE 7 mph , 11 km/h
Temperature: 70°F , 21°C
Dew Point: 64°F , 18°C
Humidity: 83%
Barometer: 30.27 inHg , 1025.1 hPa
Clouds: Overcast
Visibility: 8 miles , 13 km
Cloud details: Few Clouds 1000 ft
Mostly cloudy 1500 ft
Overcast 3300 ft
2019/05/23 06:22 KAVL 230622Z AUTO 15006KT 8SM FEW010 BKN015 OVC033 21/18 A3027 RMK AO2 T02060178
KFQD - Rutherfordton, North Carolina, USA
Distance from station: NNE 41mi, 66km
Updated: Thu, 23-May-2019 2:20am EDT
Overcast
Overcast
 Wind from calm
Wind: Calm
Temperature: 68°F , 20°C
Dew Point: 68°F , 20°C
Humidity: 100%
Barometer: 30.25 inHg , 1024.4 hPa
Clouds: Overcast
Visibility: 10 miles , 16 km
Cloud details: Overcast 1500 ft
2019/05/23 06:20 KFQD 230620Z AUTO 00000KT 10SM OVC015 20/20 A3025 RMK AO2
 
KGRD - Greenwood, South Carolina, USA
Distance from station: S 45mi, 73km
Updated: Thu, 23-May-2019 1:56am EDT
Overcast
Overcast
 Wind from SSE
Wind: SSE 6 mph , 9 km/h
Temperature: 73°F , 23°C
Dew Point: 68°F , 20°C
Humidity: 83%
Barometer: 30.23 inHg , 1023.7 hPa
Clouds: Overcast
Visibility: 10 miles , 16 km
Cloud details: Mostly cloudy 7000 ft
Overcast 9000 ft
2019/05/23 05:56 KGRD 230556Z AUTO 15005KT 10SM BKN070 OVC090 23/20 A3023 RMK AO2 RAB23E33 SLP227 P0000 60000 T02280200 10233 20217 50002
KEHO - Shelby Muni, North Carolina, USA
Distance from station: ENE 46mi, 74km
Updated: Thu, 23-May-2019 2:20am EDT
Mist, Overcast
Mist, Overcast
 Wind from calm
Wind: Calm
Temperature: 68°F , 20°C
Dew Point: 68°F , 20°C
Humidity: 100%
Barometer: 30.23 inHg , 1023.7 hPa
Summary: Mist
Clouds: Overcast
Visibility: 3 miles , 5 km
Cloud details: Overcast 600 ft
2019/05/23 06:20 KEHO 230620Z AUTO 00000KT 3SM BR OVC006 20/20 A3023 RMK AO2 P0001 T02000198